Time;durP1;ratioP1;P1;durP2;ratioP2;P2;SDS_P1;SDS_P2;PMS_P1;PMS_P2;Temp;Humidity;BMP_temperature;BMP_pressure;BME280_temperature;BME280_humidity;BME280_pressure;Samples;Min_cycle;Max_cycle;Signal;HPM_P1;HPM_P2
2023/08/28 00:02:10;;;;;;;2.53;2.33;;;18.90;61.80;;;;;;20730;6829;67935;-68
2023/08/28 00:04:35;;;;;;;2.73;2.53;;;18.90;62.70;;;;;;20545;6829;311479;-69
2023/08/28 00:07:01;;;;;;;3.90;2.50;;;19.10;61.50;;;;;;20568;6829;321588;-69
2023/08/28 00:09:27;;;;;;;4.20;2.53;;;19.60;60.00;;;;;;20569;6829;277433;-69
2023/08/28 00:11:53;;;;;;;2.47;2.37;;;19.60;59.90;;;;;;20773;6829;74532;-69
2023/08/28 00:14:19;;;;;;;3.67;2.60;;;19.50;60.30;;;;;;20563;6829;308942;-70
2023/08/28 00:16:44;;;;;;;4.30;2.50;;;19.50;59.90;;;;;;20780;6829;74129;-69
2023/08/28 00:19:10;;;;;;;2.20;2.10;;;19.00;61.00;;;;;;20790;6829;68249;-69
2023/08/28 00:21:36;;;;;;;2.97;2.40;;;18.90;60.90;;;;;;20559;6829;336231;-69
2023/08/28 00:24:01;;;;;;;2.60;2.40;;;19.00;60.80;;;;;;20787;6829;68884;-69
2023/08/28 00:26:27;;;;;;;3.30;2.40;;;19.00;61.30;;;;;;20779;6829;67932;-69
2023/08/28 00:28:52;;;;;;;3.03;2.78;;;18.70;62.00;;;;;;20564;6829;279820;-69
2023/08/28 00:31:18;;;;;;;3.83;2.30;;;18.80;61.20;;;;;;20772;6829;67340;-69
2023/08/28 00:33:44;;;;;;;2.67;1.97;;;18.60;62.20;;;;;;20780;6829;67736;-69
2023/08/28 00:36:10;;;;;;;5.00;2.37;;;18.60;62.10;;;;;;20778;6829;67917;-68
2023/08/28 00:38:36;;;;;;;5.40;2.20;;;18.30;63.20;;;;;;20775;6829;67631;-69
2023/08/28 00:41:03;;;;;;;3.80;2.90;;;18.30;63.20;;;;;;20565;6829;311810;-69
2023/08/28 00:43:27;;;;;;;4.50;3.00;;;18.50;62.80;;;;;;20556;6829;310951;-69
2023/08/28 00:45:53;;;;;;;5.37;2.73;;;18.90;62.10;;;;;;20776;6829;68654;-69
2023/08/28 00:48:19;;;;;;;3.20;3.00;;;18.80;62.10;;;;;;20566;6829;278041;-69
2023/08/28 00:50:44;;;;;;;5.77;3.10;;;19.00;62.00;;;;;;20559;6828;338412;-69
2023/08/28 00:53:11;;;;;;;3.70;3.50;;;19.20;61.20;;;;;;20561;6829;307634;-69
2023/08/28 00:55:35;;;;;;;4.40;3.07;;;19.50;60.70;;;;;;20775;6829;67801;-69
2023/08/28 00:58:04;;;;;;;3.62;3.35;;;19.30;61.10;;;;;;20554;6829;292108;-69
2023/08/28 01:00:30;;;;;;;3.47;3.20;;;19.20;61.90;;;;;;20775;6829;67043;-69
2023/08/28 01:02:55;;;;;;;3.40;3.10;;;19.10;61.80;;;;;;20778;6829;68616;-69
2023/08/28 01:05:22;;;;;;;2.87;2.77;;;18.70;63.40;;;;;;20780;6829;68511;-69
2023/08/28 01:08:04;;;;;;;3.00;2.57;;;18.70;63.40;;;;;;20769;6829;72052;-69
2023/08/28 01:10:36;;;;;;;2.83;2.63;;;18.50;64.00;;;;;;19938;6829;68845;-69
2023/08/28 01:13:05;;;;;;;4.20;3.30;;;18.40;64.40;;;;;;20557;6829;308444;-69
2023/08/28 01:15:30;;;;;;;4.00;3.50;;;18.60;63.20;;;;;;20539;6829;309423;-69
2023/08/28 01:17:56;;;;;;;3.20;2.90;;;18.90;62.20;;;;;;20781;6829;68773;-69
2023/08/28 01:20:21;;;;;;;3.75;3.42;;;18.90;62.30;;;;;;20554;6829;278007;-69
2023/08/28 01:22:57;;;;;;;5.28;3.80;;;18.90;62.10;;;;;;20563;6829;307938;-69
2023/08/28 01:25:22;;;;;;;3.53;3.23;;;19.10;61.60;;;;;;20773;6829;67787;-68
2023/08/28 01:27:48;;;;;;;7.68;3.42;;;19.00;61.90;;;;;;20773;6829;68411;-68
2023/08/28 01:30:14;;;;;;;5.75;4.07;;;18.70;62.70;;;;;;20560;6829;278791;-68
2023/08/28 01:32:39;;;;;;;35.57;4.03;;;18.80;62.50;;;;;;20704;6851;68696;-68
2023/08/28 01:35:15;;;;;;;13.37;4.23;;;18.80;62.80;;;;;;20495;6848;308189;-68
2023/08/28 01:37:53;;;;;;;4.13;3.30;;;18.90;62.60;;;;;;20768;6829;67316;-68
2023/08/28 01:40:19;;;;;;;10.23;3.30;;;18.80;62.90;;;;;;20747;6829;68183;-68
2023/08/28 01:42:44;;;;;;;54.03;4.97;;;18.60;63.80;;;;;;20546;6829;337546;-68
2023/08/28 01:45:10;;;;;;;8.93;3.93;;;18.70;63.10;;;;;;20774;6829;67972;-68
2023/08/28 01:47:36;;;;;;;4.00;3.70;;;18.70;63.30;;;;;;20769;6829;72089;-68
2023/08/28 01:50:01;;;;;;;6.70;3.67;;;18.50;63.90;;;;;;20771;6829;68016;-68
2023/08/28 01:52:27;;;;;;;10.07;4.00;;;18.30;64.50;;;;;;20550;6829;308441;-68
2023/08/28 01:54:52;;;;;;;3.67;3.47;;;18.60;64.00;;;;;;20776;6829;68118;-68
2023/08/28 01:57:19;;;;;;;4.95;3.40;;;18.50;64.30;;;;;;20770;6829;71079;-68
2023/08/28 01:59:44;;;;;;;3.80;3.60;;;18.40;64.20;;;;;;20560;6829;336610;-68
2023/08/28 02:02:10;;;;;;;3.60;3.30;;;18.60;63.10;;;;;;20562;6828;344171;-68
2023/08/28 02:04:36;;;;;;;3.20;3.10;;;18.90;62.70;;;;;;20791;6829;67324;-68
2023/08/28 02:07:02;;;;;;;3.57;3.30;;;18.90;62.50;;;;;;20568;6829;318916;-68
2023/08/28 02:09:27;;;;;;;3.50;2.90;;;19.00;62.00;;;;;;20784;6829;71716;-68
2023/08/28 02:11:53;;;;;;;3.03;2.83;;;18.90;62.20;;;;;;20780;6829;68931;-68
2023/08/28 02:14:18;;;;;;;3.22;3.03;;;18.70;62.80;;;;;;20565;6829;278010;-68
2023/08/28 02:16:44;;;;;;;3.87;3.30;;;18.80;61.80;;;;;;20577;6829;279947;-68
2023/08/28 02:19:09;;;;;;;3.60;3.30;;;19.10;61.20;;;;;;20556;6829;278772;-68
2023/08/28 02:21:35;;;;;;;3.50;2.65;;;19.30;60.30;;;;;;20779;6829;67830;-68
2023/08/28 02:24:01;;;;;;;3.70;3.50;;;19.10;60.90;;;;;;20559;6829;278091;-68
2023/08/28 02:26:27;;;;;;;3.90;3.70;;;19.10;60.80;;;;;;20566;6829;308344;-68
2023/08/28 02:28:52;;;;;;;3.73;3.43;;;19.30;60.30;;;;;;20556;6829;308453;-68
2023/08/28 02:31:18;;;;;;;3.37;3.17;;;19.50;59.70;;;;;;20563;6829;307600;-68
2023/08/28 02:33:44;;;;;;;3.27;3.13;;;19.60;59.70;;;;;;20769;6829;67757;-68
2023/08/28 02:36:09;;;;;;;4.05;3.30;;;19.40;60.20;;;;;;20558;6829;297647;-68
2023/08/28 02:38:35;;;;;;;4.00;3.50;;;19.50;59.70;;;;;;20565;6829;312046;-68
2023/08/28 02:41:01;;;;;;;3.43;3.13;;;19.50;59.70;;;;;;20780;6829;67713;-68
2023/08/28 02:43:26;;;;;;;3.10;2.80;;;19.30;60.10;;;;;;20768;6829;67853;-68
2023/08/28 02:45:52;;;;;;;5.10;3.10;;;19.00;61.00;;;;;;20780;6829;67820;-68
2023/08/28 02:48:18;;;;;;;2.87;2.67;;;18.70;61.80;;;;;;20784;6829;67894;-68
2023/08/28 02:50:43;;;;;;;3.50;3.20;;;18.50;62.40;;;;;;20568;6829;314276;-68
2023/08/28 02:53:09;;;;;;;2.73;2.63;;;18.60;61.40;;;;;;20766;6829;67802;-68
2023/08/28 02:55:39;;;;;;;3.00;2.78;;;18.40;62.20;;;;;;20776;6829;74223;-68
2023/08/28 02:58:04;;;;;;;3.40;3.07;;;18.30;62.30;;;;;;20549;6829;312335;-69
2023/08/28 03:00:30;;;;;;;3.30;3.10;;;18.60;61.90;;;;;;20554;6829;313308;-68
2023/08/28 03:02:55;;;;;;;3.05;2.85;;;18.90;60.80;;;;;;20773;6829;67937;-68
2023/08/28 03:05:21;;;;;;;3.23;3.10;;;18.80;61.00;;;;;;20556;6829;280955;-69
2023/08/28 03:07:46;;;;;;;4.33;2.53;;;18.90;60.60;;;;;;20773;6829;67817;-69
2023/08/28 03:10:12;;;;;;;2.70;2.60;;;18.70;60.90;;;;;;20767;6829;68660;-68
2023/08/28 03:12:37;;;;;;;3.20;3.00;;;18.50;61.80;;;;;;20552;6829;297498;-69
2023/08/28 03:15:03;;;;;;;2.60;2.40;;;18.60;61.10;;;;;;20774;6828;71591;-69
2023/08/28 03:17:29;;;;;;;3.00;2.80;;;18.50;61.30;;;;;;20486;6851;313179;-69
2023/08/28 03:19:54;;;;;;;2.85;2.72;;;18.70;60.80;;;;;;20760;6832;68270;-68
2023/08/28 03:22:20;;;;;;;2.47;2.37;;;18.60;61.20;;;;;;20711;6846;67821;-69
2023/08/28 03:24:46;;;;;;;2.93;2.73;;;18.40;61.90;;;;;;20780;6829;67918;-69
2023/08/28 03:27:12;;;;;;;2.47;2.33;;;18.10;63.10;;;;;;20778;6829;68168;-69
2023/08/28 03:29:37;;;;;;;2.43;2.30;;;18.10;63.10;;;;;;20784;6829;68254;-69
2023/08/28 03:32:04;;;;;;;3.40;3.10;;;18.00;63.40;;;;;;20506;6829;278115;-68
2023/08/28 03:34:29;;;;;;;2.97;2.40;;;18.20;62.70;;;;;;20741;6829;68974;-69
2023/08/28 03:36:54;;;;;;;3.13;2.83;;;18.30;62.70;;;;;;20539;6829;311801;-68
2023/08/28 03:39:20;;;;;;;2.85;2.70;;;18.50;62.10;;;;;;20554;6829;298669;-69
2023/08/28 03:41:46;;;;;;;2.97;2.77;;;19.10;60.60;;;;;;20555;6829;309777;-69
2023/08/28 03:44:12;;;;;;;3.00;2.70;;;19.00;60.50;;;;;;20551;6829;308435;-69
2023/08/28 03:46:37;;;;;;;2.83;2.60;;;19.30;60.00;;;;;;20725;6829;69488;-69
2023/08/28 03:49:03;;;;;;;2.60;2.50;;;19.10;60.40;;;;;;20547;6829;314234;-71
2023/08/28 03:51:28;;;;;;;2.80;2.70;;;19.10;59.60;;;;;;20559;6829;285186;-70
2023/08/28 03:53:54;;;;;;;2.80;2.60;;;19.30;59.20;;;;;;20561;6829;307040;-70
2023/08/28 03:56:19;;;;;;;4.65;2.90;;;19.40;58.90;;;;;;20549;6829;341266;-70
2023/08/28 03:58:46;;;;;;;2.80;2.47;;;19.30;59.80;;;;;;20776;6829;67809;-70
2023/08/28 04:01:11;;;;;;;2.60;2.40;;;19.30;59.40;;;;;;20767;6829;67301;-70
2023/08/28 04:03:37;;;;;;;3.30;2.83;;;19.00;60.40;;;;;;20512;6848;308711;-71
2023/08/28 04:06:02;;;;;;;11.85;3.70;;;19.00;60.40;;;;;;20566;6829;278013;-70
2023/08/28 04:08:28;;;;;;;93.73;5.23;;;19.30;60.10;;;;;;20575;6829;314997;-71
2023/08/28 04:10:54;;;;;;;52.62;4.75;;;19.40;59.40;;;;;;20567;6829;307671;-70
2023/08/28 04:13:19;;;;;;;73.65;5.10;;;19.60;59.40;;;;;;20572;6829;309305;-70
2023/08/28 04:15:45;;;;;;;38.80;4.17;;;19.70;59.30;;;;;;20789;6829;67856;-70
2023/08/28 04:18:10;;;;;;;213.75;8.00;;;19.40;59.70;;;;;;20554;6829;326755;-70
2023/08/28 04:20:36;;;;;;;142.90;6.17;;;19.30;60.00;;;;;;20782;6829;77471;-70
2023/08/28 04:23:02;;;;;;;285.73;8.88;;;19.10;60.30;;;;;;20561;6829;277623;-70
2023/08/28 04:25:27;;;;;;;155.27;6.63;;;19.10;60.00;;;;;;20778;6828;67818;-70
2023/08/28 04:27:53;;;;;;;13.80;4.17;;;18.90;60.40;;;;;;20770;6829;67853;-70
2023/08/28 04:30:19;;;;;;;63.13;5.18;;;18.40;62.10;;;;;;20781;6829;68012;-70
2023/08/28 04:32:44;;;;;;;30.57;4.20;;;18.30;62.00;;;;;;20772;6829;70254;-70
2023/08/28 04:35:10;;;;;;;21.40;3.70;;;18.20;62.80;;;;;;20781;6829;69856;-70
2023/08/28 04:37:36;;;;;;;11.20;4.80;;;18.00;63.40;;;;;;20565;6829;308549;-70
2023/08/28 04:40:01;;;;;;;17.23;5.10;;;18.20;62.80;;;;;;20560;6829;336616;-70
2023/08/28 04:42:27;;;;;;;5.18;4.60;;;18.60;61.70;;;;;;20561;6829;307987;-70
2023/08/28 04:44:53;;;;;;;5.00;4.50;;;19.10;60.20;;;;;;20551;6829;309964;-71
2023/08/28 04:47:19;;;;;;;4.93;3.47;;;19.10;60.20;;;;;;20775;6829;70516;-71
2023/08/28 04:49:44;;;;;;;3.40;3.20;;;18.90;60.60;;;;;;20777;6829;67357;-71
2023/08/28 04:52:10;;;;;;;2.83;2.73;;;18.50;61.40;;;;;;20744;6829;67903;-71
2023/08/28 04:54:36;;;;;;;3.47;3.10;;;18.20;62.20;;;;;;20537;6829;307414;-70
2023/08/28 04:57:01;;;;;;;2.70;2.50;;;18.40;61.80;;;;;;20762;6829;67757;-71
2023/08/28 04:59:27;;;;;;;2.20;2.10;;;18.30;61.80;;;;;;20776;6829;72960;-70
2023/08/28 05:01:52;;;;;;;3.22;3.00;;;18.10;62.40;;;;;;20548;6829;308024;-70
2023/08/28 05:04:18;;;;;;;2.78;2.58;;;18.30;61.10;;;;;;20566;6829;278206;-70
2023/08/28 05:06:43;;;;;;;2.87;2.60;;;18.60;60.10;;;;;;20756;6829;67770;-68
2023/08/28 05:09:10;;;;;;;2.47;2.30;;;18.60;60.50;;;;;;20764;6829;68431;-70
2023/08/28 05:11:34;;;;;;;2.40;2.30;;;18.30;61.10;;;;;;20547;6829;306038;-70
2023/08/28 05:14:00;;;;;;;2.30;2.20;;;18.50;60.90;;;;;;20767;6829;67943;-70
2023/08/28 05:16:26;;;;;;;2.80;2.60;;;18.40;61.10;;;;;;20564;6829;278867;-71
2023/08/28 05:18:51;;;;;;;2.70;2.43;;;18.60;60.40;;;;;;20549;6829;308412;-71
2023/08/28 05:21:17;;;;;;;3.67;3.47;;;18.80;59.70;;;;;;20559;6829;307539;-72
2023/08/28 05:23:42;;;;;;;2.30;2.20;;;19.10;59.10;;;;;;20768;6829;71983;-69
2023/08/28 05:26:08;;;;;;;2.50;2.30;;;18.90;59.40;;;;;;20566;6829;308328;-71
2023/08/28 05:28:38;;;;;;;2.50;2.40;;;19.00;59.00;;;;;;20772;6829;72028;-69
2023/08/28 05:30:59;;;;;;;3.55;2.00;;;18.80;59.50;;;;;;20641;6829;67767;-71
2023/08/28 05:33:25;;;;;;;20.10;18.40;;;18.50;60.10;;;;;;20736;6829;68187;-71
2023/08/28 05:35:50;;;;;;;5.28;4.25;;;18.30;60.90;;;;;;20771;6829;68616;-70
2023/08/28 05:38:18;;;;;;;2.97;2.70;;;18.10;61.40;;;;;;20767;6828;71638;-69
2023/08/28 05:40:43;;;;;;;2.60;2.40;;;18.00;61.70;;;;;;20779;6829;67709;-69
2023/08/28 05:43:09;;;;;;;2.50;2.40;;;17.80;62.00;;;;;;20781;6829;67316;-69
2023/08/28 05:45:34;;;;;;;3.62;3.33;;;17.80;62.40;;;;;;20571;6829;283595;-69
2023/08/28 05:48:00;;;;;;;3.67;3.37;;;18.00;62.30;;;;;;20569;6829;307035;-70
2023/08/28 05:50:25;;;;;;;114.57;6.17;;;18.50;61.80;;;;;;20777;6829;67806;-70
2023/08/28 05:52:51;;;;;;;22.70;3.85;;;18.50;61.80;;;;;;20779;6829;67880;-71
2023/08/28 05:55:16;;;;;;;4.12;3.78;;;18.30;62.10;;;;;;20778;6829;68445;-70
2023/08/28 05:57:43;;;;;;;2.30;2.07;;;18.20;62.80;;;;;;20744;6829;67838;-69
2023/08/28 06:00:18;;;;;;;3.20;3.00;;;18.10;63.30;;;;;;20754;6829;67947;-69
2023/08/28 06:06:00;;;;;;;3.23;3.03;;;18.00;64.30;;;;;;20699;6829;67369;-69
2023/08/28 06:08:34;;;;;;;2.57;2.37;;;17.90;64.30;;;;;;20568;6829;73219;-69
2023/08/28 06:11:05;;;;;;;2.70;2.60;;;17.80;64.40;;;;;;20416;6829;279509;-68
2023/08/28 06:13:32;;;;;;;2.75;2.50;;;18.10;62.40;;;;;;20556;6829;310431;-68
2023/08/28 06:16:11;;;;;;;2.53;2.43;;;18.60;61.30;;;;;;20736;6829;69109;-69
2023/08/28 06:18:36;;;;;;;2.85;2.60;;;18.60;61.30;;;;;;20537;6829;337586;-69
2023/08/28 06:21:02;;;;;;;2.50;2.30;;;18.80;60.30;;;;;;20766;6829;68309;-69
2023/08/28 06:23:27;;;;;;;2.23;2.13;;;18.80;60.90;;;;;;20765;6829;67315;-69
2023/08/28 06:25:53;;;;;;;3.42;2.50;;;18.60;61.30;;;;;;20561;6829;307996;-69
2023/08/28 06:28:19;;;;;;;2.90;2.60;;;18.80;60.00;;;;;;20554;6829;337109;-71
2023/08/28 06:30:44;;;;;;;2.73;2.53;;;19.10;58.50;;;;;;20563;6829;308512;-71
2023/08/28 06:33:10;;;;;;;3.62;2.50;;;19.40;58.30;;;;;;20773;6829;75476;-71
2023/08/28 06:35:35;;;;;;;2.50;2.40;;;19.30;58.70;;;;;;20767;6829;67323;-71
2023/08/28 06:38:01;;;;;;;2.77;2.50;;;19.10;59.40;;;;;;20767;6829;91047;-71
2023/08/28 06:40:26;;;;;;;3.33;3.03;;;18.90;60.00;;;;;;20565;6829;279144;-71
2023/08/28 06:42:52;;;;;;;3.72;3.47;;;19.00;58.50;;;;;;20514;6848;307818;-72
2023/08/28 06:45:17;;;;;;;3.22;2.92;;;19.30;57.40;;;;;;20542;6829;313402;-71
2023/08/28 06:47:44;;;;;;;4.10;3.00;;;19.40;57.70;;;;;;20720;6829;67447;-71
2023/08/28 06:50:09;;;;;;;2.97;2.40;;;19.40;57.70;;;;;;20758;6827;68410;-71
2023/08/28 06:52:36;;;;;;;3.67;2.97;;;19.00;58.40;;;;;;20742;6829;67892;-71
2023/08/28 06:55:03;;;;;;;2.60;2.40;;;18.60;60.00;;;;;;20773;6829;67701;-71
2023/08/28 06:57:28;;;;;;;3.60;3.30;;;18.60;59.90;;;;;;20496;6851;279523;-71
2023/08/28 06:59:54;;;;;;;3.93;3.47;;;18.80;59.20;;;;;;20554;6833;304015;-73
2023/08/28 07:02:19;;;;;;;2.80;2.60;;;19.10;58.00;;;;;;20777;6829;68309;-72
2023/08/28 07:04:46;;;;;;;3.27;2.83;;;19.00;58.30;;;;;;20771;6829;67821;-72
2023/08/28 07:07:10;;;;;;;3.27;3.07;;;18.80;59.10;;;;;;20563;6829;281209;-72
2023/08/28 07:09:38;;;;;;;3.90;3.60;;;18.90;58.90;;;;;;20566;6829;307717;-72
2023/08/28 07:12:02;;;;;;;4.20;3.57;;;19.30;57.60;;;;;;20555;6829;310288;-73
2023/08/28 07:14:27;;;;;;;3.20;3.00;;;19.50;57.00;;;;;;20563;6829;328875;-72
2023/08/28 07:16:53;;;;;;;2.78;2.58;;;19.80;56.70;;;;;;20775;6829;67737;-72
2023/08/28 07:19:18;;;;;;;3.00;2.80;;;19.60;57.40;;;;;;20775;6829;68292;-71
2023/08/28 07:21:44;;;;;;;3.30;3.10;;;19.30;58.00;;;;;;20563;6829;278167;-70
2023/08/28 07:24:11;;;;;;;3.10;2.80;;;19.40;57.70;;;;;;20778;6829;68228;-71
2023/08/28 07:26:36;;;;;;;2.57;2.37;;;19.30;58.10;;;;;;20774;6829;90247;-72
2023/08/28 07:29:02;;;;;;;3.30;3.10;;;19.10;58.80;;;;;;20779;6829;68231;-72
2023/08/28 07:31:27;;;;;;;3.17;3.00;;;18.90;59.20;;;;;;20781;6829;67296;-68
2023/08/28 07:33:53;;;;;;;2.93;2.77;;;18.80;59.70;;;;;;20782;6829;67956;-68
2023/08/28 07:36:22;;;;;;;3.58;3.37;;;18.80;60.30;;;;;;20560;6829;338869;-67
2023/08/28 07:38:49;;;;;;;4.77;4.37;;;19.10;59.40;;;;;;20772;6829;67942;-68
2023/08/28 07:41:16;;;;;;;4.00;3.70;;;19.20;59.50;;;;;;20520;6829;308009;-68
2023/08/28 07:43:40;;;;;;;3.70;3.40;;;19.40;58.80;;;;;;20553;6829;337116;-68
2023/08/28 07:46:12;;;;;;;3.70;3.40;;;19.80;58.00;;;;;;20525;6829;307130;-68
2023/08/28 07:48:38;;;;;;;3.77;3.50;;;20.20;57.40;;;;;;20753;6829;68188;-68
2023/08/28 07:51:04;;;;;;;3.87;3.57;;;20.10;57.80;;;;;;20724;6829;67677;-69
2023/08/28 07:53:29;;;;;;;4.12;3.83;;;20.00;58.30;;;;;;20545;6829;308274;-69
2023/08/28 07:55:54;;;;;;;2.97;2.80;;;20.00;57.50;;;;;;20759;6829;67904;-70
2023/08/28 07:58:20;;;;;;;4.43;3.93;;;20.00;57.90;;;;;;20551;6829;282496;-70
2023/08/28 08:00:46;;;;;;;3.40;3.10;;;20.10;57.00;;;;;;20558;6828;338634;-71
2023/08/28 08:03:11;;;;;;;3.33;3.10;;;20.40;56.40;;;;;;20554;6829;282946;-70
2023/08/28 08:05:37;;;;;;;4.10;3.47;;;20.70;55.80;;;;;;20553;6829;308118;-69
2023/08/28 08:08:03;;;;;;;2.87;2.77;;;20.90;54.80;;;;;;20769;6829;67003;-70
2023/08/28 08:10:28;;;;;;;3.40;3.10;;;20.70;55.60;;;;;;20550;6829;284271;-70
2023/08/28 08:12:54;;;;;;;3.63;3.33;;;20.70;55.00;;;;;;20771;6829;67440;-70
2023/08/28 08:15:19;;;;;;;3.62;3.42;;;20.50;55.50;;;;;;20553;6829;307892;-70
2023/08/28 08:17:45;;;;;;;3.80;3.20;;;20.50;55.50;;;;;;20756;6829;66781;-70
2023/08/28 08:20:11;;;;;;;3.50;3.30;;;20.50;55.50;;;;;;20775;6829;66756;-70
2023/08/28 08:22:37;;;;;;;4.30;4.00;;;20.30;56.10;;;;;;20490;6851;340909;-70
2023/08/28 08:25:03;;;;;;;3.80;3.50;;;20.50;54.80;;;;;;20535;6833;278135;-72
2023/08/28 08:27:28;;;;;;;3.33;3.13;;;20.70;54.40;;;;;;20768;6829;67440;-72
2023/08/28 08:29:55;;;;;;;3.90;3.60;;;20.50;55.50;;;;;;20772;6829;68188;-72
2023/08/28 08:32:20;;;;;;;3.50;3.30;;;20.50;55.50;;;;;;20770;6829;69319;-71
2023/08/28 08:34:47;;;;;;;3.97;3.60;;;20.30;55.90;;;;;;20767;6829;74868;-74
2023/08/28 08:37:13;;;;;;;3.43;3.23;;;20.10;56.30;;;;;;20775;6829;67953;-74
2023/08/28 08:39:39;;;;;;;3.50;3.20;;;20.00;56.60;;;;;;20768;6829;71210;-76
2023/08/28 08:42:05;;;;;;;2.80;2.60;;;19.90;56.80;;;;;;20716;6848;66726;-76
2023/08/28 08:44:33;;;;;;;4.30;3.43;;;19.80;57.00;;;;;;20776;6829;67859;-76
2023/08/28 08:46:58;;;;;;;3.60;3.40;;;19.80;57.30;;;;;;20553;6829;308434;-77
2023/08/28 08:49:25;;;;;;;3.95;3.67;;;20.00;55.50;;;;;;20491;6851;298330;-75
2023/08/28 08:51:50;;;;;;;3.77;3.50;;;20.30;54.40;;;;;;20492;6848;278367;-76
2023/08/28 08:54:19;;;;;;;3.07;2.87;;;20.60;54.20;;;;;;20755;6829;69102;-75
2023/08/28 08:56:46;;;;;;;3.20;3.00;;;20.50;54.10;;;;;;20527;6829;278099;-77
2023/08/28 08:59:12;;;;;;;3.60;3.30;;;20.60;53.20;;;;;;20548;6829;282358;-74
2023/08/28 09:01:38;;;;;;;2.60;2.40;;;20.90;51.80;;;;;;20777;6829;67939;-73
2023/08/28 09:04:03;;;;;;;3.22;2.92;;;20.70;52.70;;;;;;20549;6829;308193;-75
2023/08/28 09:06:29;;;;;;;2.60;2.50;;;20.70;51.50;;;;;;20764;6829;70189;-76
2023/08/28 09:08:55;;;;;;;3.10;2.65;;;20.50;52.60;;;;;;20550;6829;293888;-75
2023/08/28 09:11:20;;;;;;;4.83;2.33;;;20.50;52.20;;;;;;20742;6828;67888;-78
2023/08/28 09:13:46;;;;;;;2.80;2.62;;;20.40;53.20;;;;;;20568;6828;308188;-80
2023/08/28 09:16:12;;;;;;;2.90;2.70;;;20.50;52.10;;;;;;20783;6829;67398;-77
2023/08/28 09:18:37;;;;;;;3.40;3.20;;;20.40;52.70;;;;;;20561;6829;312003;-77
2023/08/28 09:21:07;;;;;;;2.87;2.60;;;20.40;51.80;;;;;;20770;6829;68281;-77
2023/08/28 09:23:31;;;;;;;3.33;2.90;;;20.20;52.60;;;;;;20559;6829;313538;-76
2023/08/28 09:25:57;;;;;;;3.40;3.07;;;20.30;52.40;;;;;;20780;6829;67903;-75
2023/08/28 09:28:24;;;;;;;3.67;3.40;;;20.20;53.10;;;;;;20560;6829;278567;-79
2023/08/28 09:30:49;;;;;;;2.50;2.40;;;20.30;52.80;;;;;;20778;6829;67827;-77
2023/08/28 09:33:15;;;;;;;3.15;2.95;;;20.20;53.30;;;;;;20767;6829;67387;-76
2023/08/28 09:35:41;;;;;;;3.40;3.10;;;20.00;54.00;;;;;;20563;6829;308374;-75
2023/08/28 09:38:06;;;;;;;3.40;3.10;;;20.20;54.00;;;;;;20775;6829;67742;-76
2023/08/28 09:40:32;;;;;;;3.47;3.28;;;20.20;54.20;;;;;;20556;6829;308578;-75
2023/08/28 09:42:57;;;;;;;3.33;3.03;;;20.40;53.50;;;;;;20562;6829;308104;-75
2023/08/28 09:45:23;;;;;;;2.53;2.33;;;20.80;53.50;;;;;;20762;6829;71029;-75
2023/08/28 09:47:55;;;;;;;2.80;2.60;;;20.90;54.40;;;;;;20749;6829;74444;-77
2023/08/28 09:50:24;;;;;;;3.50;3.20;;;20.90;54.40;;;;;;20543;6829;308009;-73
2023/08/28 09:52:51;;;;;;;2.13;2.00;;;21.40;53.80;;;;;;20772;6829;69673;-80
2023/08/28 09:55:16;;;;;;;2.67;2.50;;;21.40;53.80;;;;;;20554;6829;315500;-74
2023/08/28 09:57:45;;;;;;;3.07;2.87;;;21.70;52.70;;;;;;20535;6829;313722;-74
2023/08/28 10:00:11;;;;;;;2.53;2.43;;;22.10;51.80;;;;;;20557;6829;284823;-74
2023/08/28 10:02:36;;;;;;;2.13;2.03;;;22.50;51.00;;;;;;20755;6829;77379;-75
2023/08/28 10:05:02;;;;;;;2.33;2.00;;;22.50;51.40;;;;;;20749;6829;67845;-74
2023/08/28 10:07:28;;;;;;;2.73;2.53;;;22.40;51.50;;;;;;20467;6851;279364;-76
2023/08/28 10:09:53;;;;;;;2.50;2.33;;;22.40;49.50;;;;;;20516;6833;337625;-73
2023/08/28 10:12:19;;;;;;;2.30;2.10;;;22.60;49.00;;;;;;20520;6829;278208;-75
2023/08/28 10:14:46;;;;;;;2.80;2.70;;;22.80;47.50;;;;;;20438;6851;329395;-77
2023/08/28 10:17:12;;;;;;;2.80;2.60;;;22.80;47.50;;;;;;20696;6848;67919;-75
2023/08/28 10:19:47;;;;;;;2.40;2.30;;;22.60;48.80;;;;;;20550;6829;310735;-73
2023/08/28 10:22:13;;;;;;;2.87;2.60;;;22.80;47.10;;;;;;20485;6829;278522;-76
2023/08/28 10:24:42;;;;;;;2.87;2.67;;;22.70;47.20;;;;;;20530;6828;309032;-76
2023/08/28 10:27:10;;;;;;;2.63;2.50;;;22.70;48.50;;;;;;20704;6829;68178;-76
2023/08/28 10:29:34;;;;;;;2.63;2.50;;;22.70;48.50;;;;;;20775;6829;68764;-76
2023/08/28 10:32:00;;;;;;;2.23;2.13;;;22.40;49.40;;;;;;20777;6829;67884;-79
2023/08/28 10:34:25;;;;;;;2.83;2.60;;;22.10;50.00;;;;;;20562;6829;307704;-75
2023/08/28 10:36:51;;;;;;;4.17;2.40;;;22.20;48.60;;;;;;20748;6829;70006;-72
2023/08/28 10:39:17;;;;;;;2.00;1.90;;;22.10;49.50;;;;;;20727;6829;67438;-73
2023/08/28 10:41:42;;;;;;;2.40;2.30;;;21.90;50.30;;;;;;20541;6829;281812;-73
2023/08/28 10:44:08;;;;;;;1.95;1.85;;;22.00;49.10;;;;;;20755;6829;67865;-70
2023/08/28 10:46:33;;;;;;;3.90;2.40;;;22.00;50.00;;;;;;20753;6829;68210;-71
2023/08/28 10:48:59;;;;;;;2.33;2.23;;;21.80;50.40;;;;;;20697;6851;66721;-75
2023/08/28 10:51:36;;;;;;;2.40;2.30;;;21.60;50.90;;;;;;20486;6848;309435;-72
2023/08/28 10:53:56;;;;;;;2.17;2.07;;;21.70;49.80;;;;;;20717;6829;68375;-71
2023/08/28 10:56:21;;;;;;;2.37;2.27;;;21.70;50.40;;;;;;20545;6829;312282;-70
2023/08/28 10:58:47;;;;;;;2.17;2.00;;;21.90;49.40;;;;;;20789;6829;68794;-70
2023/08/28 11:01:16;;;;;;;2.30;2.20;;;21.80;50.10;;;;;;20568;6829;298397;-70
2023/08/28 11:03:51;;;;;;;2.50;2.40;;;22.00;48.90;;;;;;20554;6829;310785;-69
2023/08/28 11:06:43;;;;;;;2.20;2.00;;;22.10;47.80;;;;;;20752;6829;71479;-69
2023/08/28 11:09:29;;;;;;;2.22;2.12;;;21.90;48.80;;;;;;20552;6829;310356;-71
2023/08/28 11:11:58;;;;;;;2.80;2.60;;;21.90;48.90;;;;;;20482;6829;278729;-72
2023/08/28 11:14:23;;;;;;;2.30;2.20;;;22.10;48.40;;;;;;20562;6829;311373;-72
2023/08/28 11:16:49;;;;;;;2.10;1.90;;;22.20;47.90;;;;;;20546;6829;282744;-72
2023/08/28 11:19:15;;;;;;;2.28;1.90;;;22.30;48.00;;;;;;20492;6829;283690;-71
2023/08/28 11:21:42;;;;;;;2.03;1.93;;;22.40;48.20;;;;;;20749;6829;67691;-72
2023/08/28 11:24:15;;;;;;;2.10;1.58;;;22.20;49.10;;;;;;20767;6829;67292;-71
2023/08/28 11:26:44;;;;;;;1.80;1.70;;;21.90;50.00;;;;;;20750;6829;68009;-72
2023/08/28 11:29:27;;;;;;;1.70;1.60;;;21.60;50.80;;;;;;20501;6829;278652;-72
2023/08/28 11:31:52;;;;;;;2.50;2.30;;;21.60;49.50;;;;;;20508;6829;336618;-72
2023/08/28 11:34:18;;;;;;;2.00;1.90;;;22.00;48.90;;;;;;20758;6829;70553;-72
2023/08/28 11:36:45;;;;;;;2.20;2.07;;;21.90;49.60;;;;;;20536;6827;279076;-73
2023/08/28 11:39:23;;;;;;;2.42;2.22;;;22.00;48.30;;;;;;20547;6829;312108;-73
2023/08/28 11:41:48;;;;;;;2.23;2.07;;;22.00;48.30;;;;;;20759;6829;72425;-72
2023/08/28 11:44:14;;;;;;;2.10;2.00;;;21.70;49.30;;;;;;20546;6829;311913;-72
2023/08/28 11:46:39;;;;;;;1.80;1.70;;;21.70;49.00;;;;;;20543;6829;278655;-72
2023/08/28 11:49:08;;;;;;;2.10;2.00;;;21.90;48.90;;;;;;20537;6829;279995;-72
2023/08/28 11:51:34;;;;;;;1.70;1.60;;;22.00;48.30;;;;;;20755;6829;67377;-73
2023/08/28 11:53:59;;;;;;;2.23;2.03;;;21.80;49.10;;;;;;20535;6829;337144;-73
2023/08/28 11:56:25;;;;;;;2.00;1.90;;;21.80;48.80;;;;;;20541;6829;278929;-75
2023/08/28 11:58:51;;;;;;;2.27;2.03;;;21.90;49.10;;;;;;20547;6829;278070;-73
2023/08/28 12:01:17;;;;;;;3.00;2.13;;;22.00;48.70;;;;;;20535;6829;307631;-70
2023/08/28 12:03:43;;;;;;;2.30;2.10;;;22.10;48.70;;;;;;20541;6829;278291;-70
2023/08/28 12:06:08;;;;;;;2.83;1.93;;;22.10;48.70;;;;;;20751;6829;67933;-70
2023/08/28 12:08:34;;;;;;;2.20;2.10;;;21.80;49.50;;;;;;20542;6829;312128;-71
2023/08/28 12:10:59;;;;;;;2.20;2.00;;;21.70;51.60;;;;;;20544;6829;307630;-70
2023/08/28 12:13:25;;;;;;;1.95;1.85;;;21.60;51.30;;;;;;20535;6829;338939;-70
2023/08/28 12:16:03;;;;;;;1.90;1.80;;;21.50;51.90;;;;;;20766;6829;71598;-71
2023/08/28 12:18:29;;;;;;;2.40;2.20;;;21.10;52.50;;;;;;20054;6829;308008;-70
2023/08/28 12:21:04;;;;;;;2.20;2.10;;;21.00;53.40;;;;;;20726;6829;67171;-70
2023/08/28 12:23:30;;;;;;;2.97;2.33;;;20.80;54.30;;;;;;20549;6829;278173;-70
2023/08/28 12:25:56;;;;;;;2.40;1.77;;;20.70;54.20;;;;;;20749;6829;71782;-70
2023/08/28 12:28:22;;;;;;;2.43;1.97;;;20.70;54.60;;;;;;20545;6829;296718;-70
2023/08/28 12:30:48;;;;;;;2.25;2.03;;;21.00;53.80;;;;;;20540;6829;307268;-70
2023/08/28 12:33:14;;;;;;;2.50;1.87;;;21.00;53.70;;;;;;20751;6829;71966;-70
2023/08/28 12:35:40;;;;;;;2.20;2.00;;;20.90;53.80;;;;;;20543;6829;336655;-70
2023/08/28 12:38:06;;;;;;;2.00;1.90;;;20.90;53.80;;;;;;20758;6829;67302;-70
2023/08/28 12:40:31;;;;;;;2.50;2.00;;;20.80;53.90;;;;;;20543;6829;307552;-74